JAF2HN LGIR-LGSA
Flight info
| Callsign | JAF2HN |
|---|---|
| Flight time | 0h 15m |
| Altitude | 10000 |
| Route | BAVES |
| Aircraft | B738/M-SDE2E3FGHIRWXY/LB1 |
Departure
| Time | 2026-05-08 09:21 |
|---|---|
| Airport | Heraklion International Nikos Kazantzakis Airport (LGIR) |
Arrival
| Time | 2026-05-08 09:36 |
|---|---|
| Airport | Chania International Airport (LGSA) |
| Time | Latitude | Longitude | Altitude | Speed | Heading |
|---|---|---|---|---|---|
| 2026-05-08 09:12 | 35.33887 | 25.17078 | 85 ft | 0 kts | 153° |
| 2026-05-08 09:16 | 35.33886 | 25.17079 | 85 ft | 1 kts | 142° |
| 2026-05-08 09:16 | 35.33888 | 25.17089 | 89 ft | 2 kts | 76° |
| 2026-05-08 09:16 | 35.33917 | 25.17127 | 85 ft | 9 kts | 49° |
| 2026-05-08 09:16 | 35.33932 | 25.17196 | 86 ft | 9 kts | 93° |
| 2026-05-08 09:17 | 35.33927 | 25.17284 | 86 ft | 12 kts | 95° |
| 2026-05-08 09:17 | 35.33920 | 25.17398 | 86 ft | 15 kts | 95° |
| 2026-05-08 09:17 | 35.33910 | 25.17535 | 90 ft | 20 kts | 95° |
| 2026-05-08 09:17 | 35.33898 | 25.17713 | 91 ft | 21 kts | 94° |
| 2026-05-08 09:18 | 35.33886 | 25.17888 | 90 ft | 20 kts | 95° |
| 2026-05-08 09:18 | 35.33873 | 25.18057 | 91 ft | 20 kts | 95° |
| 2026-05-08 09:18 | 35.33862 | 25.18221 | 96 ft | 19 kts | 95° |
| 2026-05-08 09:18 | 35.33851 | 25.18379 | 95 ft | 18 kts | 95° |
| 2026-05-08 09:19 | 35.33839 | 25.18533 | 96 ft | 18 kts | 95° |
| 2026-05-08 09:19 | 35.33827 | 25.18688 | 91 ft | 19 kts | 95° |
| 2026-05-08 09:19 | 35.33816 | 25.18842 | 91 ft | 18 kts | 94° |
| 2026-05-08 09:19 | 35.33843 | 25.18985 | 90 ft | 18 kts | 56° |
| 2026-05-08 09:20 | 35.33909 | 25.18981 | 88 ft | 8 kts | 284° |
| 2026-05-08 09:20 | 35.33918 | 25.18846 | 87 ft | 43 kts | 275° |
| 2026-05-08 09:20 | 35.33966 | 25.18161 | 90 ft | 116 kts | 275° |
| 2026-05-08 09:20 | 35.34047 | 25.16927 | 161 ft | 168 kts | 275° |
| 2026-05-08 09:21 | 35.34142 | 25.15450 | 914 ft | 172 kts | 278° |
| 2026-05-08 09:21 | 35.34679 | 25.14266 | 2078 ft | 165 kts | 325° |
| 2026-05-08 09:22 | 35.38906 | 25.06299 | 6003 ft | 268 kts | 244° |
| 2026-05-08 09:23 | 35.37999 | 25.04315 | 6869 ft | 272 kts | 241° |
| 2026-05-08 09:23 | 35.37159 | 25.02237 | 7647 ft | 274 kts | 256° |
| 2026-05-08 09:23 | 35.37024 | 24.99937 | 8543 ft | 271 kts | 277° |
| 2026-05-08 09:23 | 35.37374 | 24.97664 | 9389 ft | 273 kts | 283° |
| 2026-05-08 09:24 | 35.37847 | 24.95397 | 9964 ft | 275 kts | 284° |
| 2026-05-08 09:24 | 35.38338 | 24.93133 | 10181 ft | 274 kts | 284° |
| 2026-05-08 09:24 | 35.38820 | 24.90879 | 10036 ft | 274 kts | 284° |
| 2026-05-08 09:24 | 35.39290 | 24.88637 | 9884 ft | 270 kts | 284° |
| 2026-05-08 09:25 | 35.39747 | 24.86414 | 9604 ft | 268 kts | 284° |
| 2026-05-08 09:25 | 35.40189 | 24.84239 | 9361 ft | 267 kts | 284° |
| 2026-05-08 09:25 | 35.40635 | 24.82026 | 9062 ft | 267 kts | 284° |
| 2026-05-08 09:25 | 35.41080 | 24.79810 | 8761 ft | 268 kts | 284° |
| 2026-05-08 09:26 | 35.41524 | 24.77598 | 8493 ft | 267 kts | 283° |
| 2026-05-08 09:26 | 35.41966 | 24.75386 | 8196 ft | 268 kts | 284° |
| 2026-05-08 09:26 | 35.42408 | 24.73169 | 7904 ft | 267 kts | 283° |
| 2026-05-08 09:26 | 35.42831 | 24.70950 | 7594 ft | 267 kts | 283° |
| 2026-05-08 09:27 | 35.43231 | 24.68764 | 7315 ft | 266 kts | 283° |
| 2026-05-08 09:27 | 35.43634 | 24.66550 | 7024 ft | 265 kts | 283° |
| 2026-05-08 09:27 | 35.44036 | 24.64349 | 6737 ft | 264 kts | 283° |
| 2026-05-08 09:27 | 35.44438 | 24.62152 | 6439 ft | 263 kts | 283° |
| 2026-05-08 09:28 | 35.44639 | 24.59933 | 6123 ft | 263 kts | 263° |
| 2026-05-08 09:28 | 35.44031 | 24.57832 | 5813 ft | 265 kts | 239° |
| 2026-05-08 09:28 | 35.42769 | 24.56209 | 5613 ft | 261 kts | 224° |
| 2026-05-08 09:28 | 35.41798 | 24.54440 | 5457 ft | 251 kts | 250° |
| 2026-05-08 09:29 | 35.41239 | 24.52451 | 5332 ft | 243 kts | 260° |
| 2026-05-08 09:29 | 35.41338 | 24.50445 | 5235 ft | 233 kts | 287° |
| 2026-05-08 09:29 | 35.41900 | 24.48622 | 5134 ft | 225 kts | 293° |
| 2026-05-08 09:29 | 35.42519 | 24.46873 | 4930 ft | 221 kts | 293° |
| 2026-05-08 09:30 | 35.43111 | 24.45186 | 4719 ft | 211 kts | 292° |
| 2026-05-08 09:30 | 35.43673 | 24.43552 | 4495 ft | 203 kts | 292° |
| 2026-05-08 09:30 | 35.44209 | 24.41980 | 4268 ft | 196 kts | 292° |
| 2026-05-08 09:30 | 35.44716 | 24.40486 | 4074 ft | 188 kts | 292° |
| 2026-05-08 09:31 | 35.45195 | 24.39038 | 3910 ft | 180 kts | 291° |
| 2026-05-08 09:31 | 35.45652 | 24.37635 | 3704 ft | 176 kts | 291° |
| 2026-05-08 09:31 | 35.46103 | 24.36246 | 3500 ft | 174 kts | 291° |
| 2026-05-08 09:31 | 35.46546 | 24.34887 | 3308 ft | 169 kts | 291° |
| 2026-05-08 09:32 | 35.46980 | 24.33566 | 3096 ft | 165 kts | 292° |
| 2026-05-08 09:32 | 35.47409 | 24.32276 | 2895 ft | 162 kts | 292° |
| 2026-05-08 09:32 | 35.47829 | 24.31012 | 2714 ft | 158 kts | 292° |
| 2026-05-08 09:32 | 35.48242 | 24.29767 | 2520 ft | 161 kts | 292° |
| 2026-05-08 09:33 | 35.48663 | 24.28496 | 2325 ft | 161 kts | 291° |
| 2026-05-08 09:33 | 35.49079 | 24.27243 | 2168 ft | 155 kts | 292° |
| 2026-05-08 09:33 | 35.49494 | 24.26053 | 2139 ft | 150 kts | 293° |
| 2026-05-08 09:33 | 35.49942 | 24.24891 | 2099 ft | 154 kts | 294° |
| 2026-05-08 09:34 | 35.50361 | 24.23672 | 2078 ft | 153 kts | 291° |
| 2026-05-08 09:34 | 35.50726 | 24.22451 | 1859 ft | 152 kts | 291° |
| 2026-05-08 09:34 | 35.51119 | 24.21251 | 1432 ft | 151 kts | 293° |
| 2026-05-08 09:34 | 35.51519 | 24.20108 | 1173 ft | 146 kts | 292° |
| 2026-05-08 09:35 | 35.51888 | 24.18956 | 954 ft | 143 kts | 290° |
| 2026-05-08 09:35 | 35.52250 | 24.17817 | 762 ft | 143 kts | 291° |
| 2026-05-08 09:35 | 35.52618 | 24.16690 | 571 ft | 141 kts | 291° |
| 2026-05-08 09:35 | 35.52945 | 24.15687 | 559 ft | 102 kts | 292° |
| 2026-05-08 09:36 | 35.53126 | 24.15128 | 561 ft | 42 kts | 291° |
| 2026-05-08 09:36 | 35.53230 | 24.14811 | 556 ft | 38 kts | 291° |
| 2026-05-08 09:36 | 35.53323 | 24.14526 | 564 ft | 34 kts | 291° |
| 2026-05-08 09:36 | 35.53399 | 24.14294 | 562 ft | 20 kts | 292° |
| 2026-05-08 09:37 | 35.53481 | 24.14286 | 556 ft | 9 kts | 25° |
| 2026-05-08 09:37 | 35.53486 | 24.14289 | 556 ft | 2 kts | 22° |
| 2026-05-08 09:37 | 35.53520 | 24.14305 | 559 ft | 8 kts | 22° |
| 2026-05-08 09:37 | 35.53561 | 24.14353 | 558 ft | 9 kts | 91° |
| 2026-05-08 09:38 | 35.53536 | 24.14438 | 563 ft | 12 kts | 111° |
| 2026-05-08 09:38 | 35.53530 | 24.14458 | 558 ft | 0 kts | 111° |
| 2026-05-08 09:38 | 35.53534 | 24.14445 | 563 ft | 3 kts | 111° |
| 2026-05-08 09:39 | 35.53548 | 24.14402 | 564 ft | 8 kts | 112° |
| 2026-05-08 09:39 | 35.53572 | 24.14328 | 569 ft | 8 kts | 112° |
| 2026-05-08 09:39 | 35.53577 | 24.14323 | 567 ft | 3 kts | 85° |
| 2026-05-08 09:39 | 35.53619 | 24.14357 | 555 ft | 11 kts | 16° |
| 2026-05-08 09:40 | 35.53674 | 24.14384 | 566 ft | 5 kts | 49° |
| 2026-05-08 09:40 | 35.53686 | 24.14428 | 562 ft | 6 kts | 53° |
| 2026-05-08 09:40 | 35.53719 | 24.14448 | 557 ft | 5 kts | 22° |
| 2026-05-08 09:40 | 35.53735 | 24.14456 | 559 ft | 1 kts | 22° |
| 2026-05-08 09:41 | 35.53740 | 24.14458 | 562 ft | 0 kts | 22° |